createdAt,value
2019-02-25T00:00:09.753Z,147.72
2019-02-25T00:02:38.609Z,147.93
2019-02-25T00:05:05.821Z,147.28
2019-02-25T00:07:33.321Z,143.90
2019-02-25T00:10:00.292Z,144.65
2019-02-25T00:12:29.922Z,146.95
2019-02-25T00:14:56.858Z,145.75
2019-02-25T00:17:23.800Z,145.35
2019-02-25T00:19:50.765Z,145.07
2019-02-25T00:22:18.077Z,145.07
2019-02-25T00:24:45.732Z,144.62
2019-02-25T00:27:12.679Z,145.47
2019-02-25T00:29:39.977Z,144.68
2019-02-25T00:32:07.372Z,144.13
2019-02-25T00:34:34.322Z,142.80
2019-02-25T00:37:01.297Z,143.57
2019-02-25T00:39:28.266Z,142.25
2019-02-25T00:41:55.212Z,144.47
2019-02-25T00:44:23.881Z,143.70
2019-02-25T00:46:52.077Z,142.18
2019-02-25T00:49:19.014Z,142.37
2019-02-25T00:51:46.098Z,143.68
2019-02-25T00:54:13.045Z,142.90
2019-02-25T00:56:40.000Z,145.28
2019-02-25T00:59:07.439Z,142.53
2019-02-25T01:01:34.404Z,143.75
2019-02-25T01:04:04.920Z,145.35
2019-02-25T01:06:31.893Z,141.82
2019-02-25T01:08:58.867Z,143.10
2019-02-25T01:11:25.824Z,143.10
2019-02-25T01:13:53.101Z,144.62
2019-02-25T01:16:20.040Z,146.70
2019-02-25T01:18:46.996Z,142.87
2019-02-25T01:21:14.291Z,142.72
2019-02-25T01:23:41.235Z,142.32
2019-02-25T01:26:09.284Z,141.70
2019-02-25T01:28:36.241Z,143.02
2019-02-25T01:31:03.606Z,143.25
2019-02-25T01:33:30.674Z,143.40
2019-02-25T01:35:57.676Z,142.60
2019-02-25T01:38:24.909Z,145.05
2019-02-25T01:40:51.892Z,145.77
2019-02-25T01:43:18.855Z,143.35
2019-02-25T01:45:45.812Z,143.35
2019-02-25T01:48:12.759Z,141.70
2019-02-25T01:50:39.716Z,143.17
2019-02-25T01:53:07.107Z,141.32
2019-02-25T01:55:34.042Z,141.85
2019-02-25T01:58:00.992Z,142.82
2019-02-25T02:00:27.951Z,143.50
2019-02-25T02:02:54.892Z,142.70
2019-02-25T02:05:21.871Z,143.87
2019-02-25T02:07:48.810Z,144.25
2019-02-25T02:10:16.403Z,142.98
2019-02-25T02:12:43.505Z,145.62
2019-02-25T02:15:12.361Z,144.22
2019-02-25T02:17:39.623Z,144.45
2019-02-25T02:20:07.276Z,145.22
2019-02-25T02:22:34.206Z,146.00
2019-02-25T02:25:01.233Z,145.92
2019-02-25T02:27:28.218Z,144.72
2019-02-25T02:29:55.367Z,142.47
2019-02-25T02:32:22.647Z,143.68
2019-02-25T02:34:49.630Z,143.32
2019-02-25T02:37:16.574Z,144.05
2019-02-25T02:39:43.961Z,144.90
2019-02-25T02:42:13.184Z,143.55
2019-02-25T02:44:40.725Z,145.15
2019-02-25T02:47:33.643Z,144.28
2019-02-25T02:50:00.609Z,142.53
2019-02-25T02:52:27.620Z,144.53
2019-02-25T02:54:54.696Z,141.95
2019-02-25T02:57:21.666Z,143.07
2019-02-25T02:59:49.010Z,143.20
2019-02-25T03:02:16.104Z,144.35
2019-02-25T03:04:43.042Z,144.40
2019-02-25T03:07:09.993Z,144.30
2019-02-25T03:09:37.006Z,146.43
2019-02-25T03:12:03.948Z,144.53
2019-02-25T03:14:31.182Z,146.37
2019-02-25T03:16:58.213Z,144.82
2019-02-25T03:19:25.206Z,145.15
2019-02-25T03:21:54.418Z,144.95
2019-02-25T03:24:21.384Z,144.45
2019-02-25T03:26:48.331Z,144.70
2019-02-25T03:29:15.511Z,143.47
2019-02-25T03:31:42.963Z,146.50
2019-02-25T03:34:09.917Z,143.80
2019-02-25T03:36:36.877Z,145.38
2019-02-25T03:39:05.712Z,143.37
2019-02-25T03:41:32.870Z,145.32
2019-02-25T03:43:59.872Z,145.00
2019-02-25T03:46:26.842Z,148.82
2019-02-25T03:48:53.832Z,146.98
2019-02-25T03:51:20.790Z,146.62
2019-02-25T03:53:48.104Z,146.70
2019-02-25T03:56:15.139Z,146.37
2019-02-25T03:58:42.079Z,146.25
2019-02-25T04:01:09.257Z,144.70
2019-02-25T04:03:36.413Z,145.68
2019-02-25T04:06:03.666Z,145.68
2019-02-25T04:08:30.696Z,145.02
2019-02-25T04:10:57.991Z,146.07
2019-02-25T04:13:24.952Z,146.25
2019-02-25T04:15:52.007Z,144.97
2019-02-25T04:18:19.314Z,145.62
2019-02-25T04:20:46.292Z,146.20
2019-02-25T04:23:13.261Z,146.70
2019-02-25T04:25:40.221Z,143.55
2019-02-25T04:28:07.163Z,145.05
2019-02-25T04:30:34.783Z,143.37
2019-02-25T04:33:02.120Z,144.80
2019-02-25T04:35:29.048Z,147.13
2019-02-25T04:37:56.217Z,143.20
2019-02-25T04:40:23.619Z,144.90
2019-02-25T04:42:50.609Z,145.85
2019-02-25T04:45:17.541Z,144.47
2019-02-25T04:47:44.483Z,145.92
2019-02-25T04:50:12.016Z,143.45
2019-02-25T04:52:39.017Z,144.72
2019-02-25T04:55:06.520Z,143.25
2019-02-25T04:57:33.763Z,144.55
2019-02-25T05:00:00.746Z,144.40
2019-02-25T05:02:27.693Z,143.82
2019-02-25T05:04:54.638Z,144.17
2019-02-25T05:07:21.640Z,143.68
2019-02-25T05:09:48.603Z,143.10
2019-02-25T05:12:15.944Z,144.95
2019-02-25T05:14:42.918Z,142.50
2019-02-25T05:17:10.035Z,141.85
2019-02-25T05:19:37.379Z,140.18
2019-02-25T05:22:04.369Z,141.18
2019-02-25T05:24:31.350Z,142.43
2019-02-25T05:26:58.291Z,144.65
2019-02-25T05:29:25.591Z,142.75
2019-02-25T05:31:52.516Z,141.82
2019-02-25T05:34:19.463Z,142.90
2019-02-25T05:36:46.865Z,143.17
2019-02-25T05:39:13.814Z,143.17
2019-02-25T05:41:40.805Z,144.02
2019-02-25T05:44:08.576Z,142.90
2019-02-25T05:46:35.719Z,143.07
2019-02-25T05:49:02.660Z,142.77
2019-02-25T05:51:30.100Z,142.15
2019-02-25T05:53:57.038Z,146.10
2019-02-25T05:56:24.042Z,143.17
2019-02-25T05:58:51.412Z,145.80
2019-02-25T06:01:18.379Z,144.72
2019-02-25T06:03:45.330Z,144.95
2019-02-25T06:06:12.294Z,144.95
2019-02-25T06:08:39.626Z,142.62
2019-02-25T06:11:06.601Z,167.18
2019-02-25T06:13:34.037Z,144.50
2019-02-25T06:16:01.010Z,149.82
2019-02-25T06:18:27.947Z,144.28
2019-02-25T06:20:55.320Z,146.05
2019-02-25T06:23:22.261Z,143.52
2019-02-25T06:25:49.210Z,145.87
2019-02-25T06:28:16.659Z,145.22
2019-02-25T06:30:43.593Z,144.07
2019-02-25T06:33:10.528Z,143.85
2019-02-25T06:35:37.481Z,145.82
2019-02-25T06:38:04.444Z,145.38
2019-02-25T06:40:31.382Z,147.07
2019-02-25T06:42:58.810Z,147.98
2019-02-25T06:45:25.853Z,147.62
2019-02-25T06:47:52.780Z,147.02
2019-02-25T06:50:20.781Z,145.47
2019-02-25T06:52:47.726Z,144.40
2019-02-25T06:55:14.896Z,144.13
2019-02-25T06:57:42.255Z,146.35
2019-02-25T07:00:12.305Z,145.50
2019-02-25T07:02:40.253Z,143.52
2019-02-25T07:05:19.671Z,146.90
2019-02-25T07:07:51.833Z,146.20
2019-02-25T07:10:37.498Z,145.85
2019-02-25T07:13:22.290Z,146.05
2019-02-25T07:16:09.357Z,145.80
2019-02-25T07:18:58.483Z,145.75
2019-02-25T07:21:37.953Z,146.75
2019-02-25T07:24:17.477Z,147.68
2019-02-25T07:26:50.771Z,148.28
2019-02-25T07:29:32.577Z,148.17
2019-02-25T07:32:14.964Z,148.20
2019-02-25T07:34:47.249Z,146.77
2019-02-25T07:37:34.040Z,149.20
2019-02-25T07:40:13.818Z,148.02
2019-02-25T07:43:12.855Z,150.65
2019-02-25T07:46:02.198Z,147.22
2019-02-25T07:48:47.456Z,149.10
2019-02-25T07:51:49.128Z,149.90
2019-02-25T07:54:31.319Z,149.72
2019-02-25T07:57:20.767Z,150.35
2019-02-25T08:00:25.851Z,148.28
2019-02-25T08:03:18.275Z,150.07
2019-02-25T08:06:23.572Z,150.57
2019-02-25T08:09:17.637Z,151.30
2019-02-25T08:12:09.194Z,153.50
2019-02-25T08:15:09.057Z,152.32
2019-02-25T08:17:59.317Z,153.45
2019-02-25T08:20:44.773Z,151.22
2019-02-25T08:23:31.835Z,154.55
2019-02-25T08:26:16.955Z,151.22
2019-02-25T08:28:53.459Z,151.32
2019-02-25T08:31:58.227Z,153.10
2019-02-25T08:34:57.349Z,150.62
2019-02-25T08:37:54.283Z,151.02
2019-02-25T08:40:40.849Z,150.60
2019-02-25T08:43:22.557Z,151.93
2019-02-25T08:46:00.861Z,151.75
2019-02-25T08:48:34.397Z,152.10
2019-02-25T08:51:01.365Z,154.78
2019-02-25T08:53:29.907Z,154.95
2019-02-25T08:55:58.365Z,153.93
2019-02-25T08:58:25.597Z,154.53
2019-02-25T09:00:52.549Z,153.50
2019-02-25T09:03:19.483Z,153.32
2019-02-25T09:05:46.513Z,154.07
2019-02-25T09:08:13.816Z,153.20
2019-02-25T09:10:40.864Z,156.45
2019-02-25T09:13:08.068Z,153.45
2019-02-25T09:15:35.008Z,152.53
2019-02-25T09:18:00.974Z,152.30
2019-02-25T09:20:27.968Z,153.30
2019-02-25T09:22:54.904Z,152.57
2019-02-25T09:25:21.849Z,153.55
2019-02-25T09:27:48.899Z,155.45
2019-02-25T09:30:16.163Z,154.32
2019-02-25T09:32:43.433Z,154.47
2019-02-25T09:35:11.124Z,156.55
2019-02-25T09:37:38.209Z,155.90
2019-02-25T09:40:07.072Z,159.07
2019-02-25T09:42:34.838Z,154.90
2019-02-25T09:45:01.802Z,156.10
2019-02-25T09:47:29.358Z,156.18
2019-02-25T09:49:56.656Z,155.97
2019-02-25T09:52:23.579Z,157.00
2019-02-25T09:54:50.527Z,160.93
2019-02-25T09:57:17.935Z,157.75
2019-02-25T09:59:44.896Z,160.72
2019-02-25T10:02:11.836Z,161.18
2019-02-25T10:04:39.210Z,157.85
2019-02-25T10:07:06.136Z,158.55
2019-02-25T10:09:33.104Z,158.18
2019-02-25T10:12:01.503Z,158.50
2019-02-25T10:14:28.472Z,159.87
2019-02-25T10:16:55.419Z,158.45
2019-02-25T10:19:22.380Z,159.25
2019-02-25T10:21:49.333Z,158.10
2019-02-25T10:24:16.335Z,155.97
2019-02-25T10:26:43.736Z,156.10
2019-02-25T10:29:10.685Z,157.72
2019-02-25T10:31:39.572Z,159.93
2019-02-25T10:34:07.681Z,158.50
2019-02-25T10:36:36.388Z,159.37
2019-02-25T10:39:09.082Z,160.03
2019-02-25T10:41:37.169Z,159.65
2019-02-25T10:44:04.852Z,158.72
2019-02-25T10:46:32.973Z,158.57
2019-02-25T10:49:10.958Z,159.60
2019-02-25T10:51:28.894Z,161.85
2019-02-25T10:53:55.882Z,157.75
2019-02-25T10:56:27.615Z,158.65
2019-02-25T10:58:54.553Z,159.25
2019-02-25T11:01:22.361Z,158.35
2019-02-25T11:03:52.189Z,158.12
2019-02-25T11:06:19.311Z,157.47
2019-02-25T11:08:51.176Z,157.55
2019-02-25T11:11:23.221Z,158.70
2019-02-25T11:13:50.837Z,158.85
2019-02-25T11:16:19.861Z,160.15
2019-02-25T11:18:46.702Z,161.25
2019-02-25T11:21:13.704Z,160.52
2019-02-25T11:23:42.900Z,160.45
2019-02-25T11:26:09.865Z,159.05
2019-02-25T11:28:39.180Z,159.32
2019-02-25T11:31:05.866Z,157.93
2019-02-25T11:33:34.357Z,159.40
2019-02-25T11:36:01.616Z,158.15
2019-02-25T11:38:30.514Z,158.63
2019-02-25T11:41:31.735Z,158.70
2019-02-25T11:44:31.033Z,158.93
2019-02-25T11:46:57.089Z,160.05
2019-02-25T11:49:24.033Z,161.20
2019-02-25T11:51:50.985Z,160.72
2019-02-25T11:54:17.982Z,161.50
2019-02-25T11:56:45.437Z,163.60
2019-02-25T11:59:12.387Z,163.15
2019-02-25T12:01:39.336Z,161.32
2019-02-25T12:04:06.686Z,163.05
2019-02-25T12:06:33.633Z,161.15
2019-02-25T12:09:03.104Z,164.37
2019-02-25T12:11:32.294Z,162.18
2019-02-25T12:13:59.252Z,161.37
2019-02-25T12:16:26.267Z,161.22
2019-02-25T12:18:53.594Z,163.70
2019-02-25T12:21:20.552Z,162.15
2019-02-25T12:23:49.579Z,162.40
2019-02-25T12:26:16.543Z,162.25
2019-02-25T12:28:43.906Z,161.25
2019-02-25T12:31:11.213Z,162.32
2019-02-25T12:33:38.203Z,162.62
2019-02-25T12:36:05.157Z,163.85
2019-02-25T12:38:32.131Z,163.65
2019-02-25T12:40:59.075Z,165.18
2019-02-25T12:43:26.081Z,164.40
2019-02-25T12:45:54.711Z,164.62
2019-02-25T12:48:22.814Z,164.40
2019-02-25T12:50:49.851Z,161.90
2019-02-25T12:53:16.889Z,162.07
2019-02-25T12:55:43.824Z,162.60
2019-02-25T12:58:10.870Z,163.62
2019-02-25T13:00:37.833Z,166.65
2019-02-25T13:03:04.819Z,167.95
2019-02-25T13:05:31.786Z,165.25
2019-02-25T13:07:58.813Z,163.25
2019-02-25T13:10:26.378Z,163.85
2019-02-25T13:12:53.568Z,165.10
2019-02-25T13:15:20.661Z,164.13
2019-02-25T13:17:47.988Z,165.18
2019-02-25T13:20:15.104Z,165.60
2019-02-25T13:22:42.398Z,162.40
2019-02-25T13:25:11.220Z,163.25
2019-02-25T13:27:39.370Z,163.25
2019-02-25T13:30:09.878Z,164.18
2019-02-25T13:32:36.831Z,163.80
2019-02-25T13:35:03.900Z,163.18
2019-02-25T13:37:31.000Z,163.85
2019-02-25T13:39:59.905Z,162.12
2019-02-25T13:42:27.042Z,163.52
2019-02-25T13:44:54.188Z,167.53
2019-02-25T13:47:21.605Z,163.45
2019-02-25T13:49:49.395Z,163.95
2019-02-25T13:52:16.362Z,166.00
2019-02-25T13:54:43.729Z,165.20
2019-02-25T13:57:10.723Z,166.45
2019-02-25T13:59:37.685Z,165.37
2019-02-25T14:02:04.925Z,165.60
2019-02-25T14:04:32.062Z,166.20
2019-02-25T14:06:59.341Z,166.95
2019-02-25T14:09:26.720Z,171.55
2019-02-25T14:11:53.961Z,167.53
2019-02-25T14:14:20.973Z,165.88
2019-02-25T14:16:50.009Z,167.18
2019-02-25T14:19:17.081Z,167.22
2019-02-25T14:21:44.256Z,164.95
2019-02-25T14:24:13.169Z,165.62
2019-02-25T14:26:40.104Z,165.10
2019-02-25T14:29:07.099Z,162.27
2019-02-25T14:31:34.320Z,163.90
2019-02-25T14:34:01.260Z,162.88
2019-02-25T14:36:28.376Z,167.03
2019-02-25T14:38:56.386Z,162.68
2019-02-25T14:41:24.655Z,163.60
2019-02-25T14:43:53.760Z,163.57
2019-02-25T14:46:24.356Z,161.28
2019-02-25T14:48:50.826Z,162.05
2019-02-25T14:51:17.990Z,165.12
2019-02-25T14:53:46.950Z,164.70
2019-02-25T14:56:15.727Z,165.80
2019-02-25T14:58:43.793Z,166.82
2019-02-25T15:01:12.072Z,164.93
2019-02-25T15:03:39.148Z,167.15
2019-02-25T15:06:06.189Z,165.03
2019-02-25T15:08:37.478Z,162.85
2019-02-25T15:11:37.765Z,163.32
2019-02-25T15:14:05.919Z,165.62
2019-02-25T15:16:34.509Z,165.20
2019-02-25T15:19:01.561Z,163.87
2019-02-25T15:21:28.614Z,166.60
2019-02-25T15:24:00.058Z,162.57
2019-02-25T15:26:28.073Z,161.97
2019-02-25T15:29:02.853Z,164.40
2019-02-25T15:31:35.607Z,168.00
2019-02-25T15:34:05.179Z,166.00
2019-02-25T15:36:32.419Z,162.75
2019-02-25T15:38:59.596Z,166.77
2019-02-25T15:41:26.540Z,164.45
2019-02-25T15:43:59.828Z,165.70
2019-02-25T15:46:27.032Z,165.50
2019-02-25T15:48:59.690Z,165.03
2019-02-25T15:51:28.479Z,164.72
2019-02-25T15:53:59.817Z,165.73
2019-02-25T15:56:31.933Z,165.55
2019-02-25T15:59:08.270Z,164.77
2019-02-25T16:01:37.032Z,167.15
2019-02-25T16:04:04.680Z,170.10
2019-02-25T16:06:34.065Z,165.25
2019-02-25T16:09:03.545Z,163.18
2019-02-25T16:11:36.652Z,169.17
2019-02-25T16:14:04.493Z,162.03
2019-02-25T16:16:33.463Z,167.43
2019-02-25T16:19:00.586Z,161.37
2019-02-25T16:21:27.612Z,161.97
2019-02-25T16:23:54.966Z,162.43
2019-02-25T16:26:22.609Z,164.40
2019-02-25T16:28:50.496Z,164.20
2019-02-25T16:31:19.988Z,164.57
2019-02-25T16:33:49.084Z,164.90
2019-02-25T16:36:21.904Z,164.88
2019-02-25T16:38:55.719Z,164.67
2019-02-25T16:41:27.364Z,161.47
2019-02-25T16:43:51.228Z,162.03
2019-02-25T16:46:20.209Z,160.95
2019-02-25T16:48:48.405Z,162.60
2019-02-25T16:51:18.934Z,161.68
2019-02-25T16:53:49.804Z,162.62
2019-02-25T16:56:15.072Z,161.18
2019-02-25T16:58:42.376Z,160.85
2019-02-25T17:01:10.941Z,163.45
2019-02-25T17:03:39.751Z,164.93
2019-02-25T17:06:09.209Z,160.95
2019-02-25T17:08:36.513Z,160.78
2019-02-25T17:11:04.132Z,162.18
2019-02-25T17:13:33.070Z,159.90
2019-02-25T17:16:02.742Z,159.78
2019-02-25T17:18:31.252Z,158.00
2019-02-25T17:20:59.084Z,157.75
2019-02-25T17:23:32.302Z,158.93
2019-02-25T17:26:01.810Z,159.48
2019-02-25T17:28:28.778Z,158.93
2019-02-25T17:30:56.351Z,161.43
2019-02-25T17:33:24.118Z,161.40
2019-02-25T17:35:54.084Z,160.00
2019-02-25T17:38:23.032Z,161.80
2019-02-25T17:40:50.618Z,159.40
2019-02-25T17:43:18.441Z,161.90
2019-02-25T17:45:47.422Z,161.50
2019-02-25T17:48:18.662Z,160.15
2019-02-25T17:50:46.650Z,161.85
2019-02-25T17:53:14.004Z,160.82
2019-02-25T17:55:41.397Z,159.22
2019-02-25T17:58:08.478Z,160.12
2019-02-25T18:00:39.436Z,158.10
2019-02-25T18:03:07.184Z,159.65
2019-02-25T18:05:35.941Z,159.52
2019-02-25T18:08:05.313Z,158.80
2019-02-25T18:10:38.168Z,160.18
2019-02-25T18:13:10.436Z,158.47
2019-02-25T18:15:37.619Z,159.18
2019-02-25T18:18:07.044Z,156.95
2019-02-25T18:20:34.019Z,156.28
2019-02-25T18:23:01.521Z,158.27
2019-02-25T18:25:28.644Z,157.97
2019-02-25T18:27:55.625Z,157.25
2019-02-25T18:30:25.175Z,156.85
2019-02-25T18:32:52.660Z,158.03
2019-02-25T18:35:22.845Z,156.20
2019-02-25T18:37:49.866Z,159.80
2019-02-25T18:40:18.997Z,157.05
2019-02-25T18:42:46.274Z,156.67
2019-02-25T18:45:16.009Z,155.93
2019-02-25T18:47:43.491Z,156.32
2019-02-25T18:50:15.178Z,157.32
2019-02-25T18:52:41.931Z,157.07
2019-02-25T18:55:11.150Z,155.97
2019-02-25T18:57:41.701Z,158.47
2019-02-25T19:00:13.377Z,163.25
2019-02-25T19:02:42.983Z,155.95
2019-02-25T19:05:13.606Z,154.45
2019-02-25T19:07:39.042Z,156.25
2019-02-25T19:10:06.277Z,160.28
2019-02-25T19:12:33.665Z,161.35
2019-02-25T19:15:03.092Z,159.75
2019-02-25T19:17:31.954Z,160.03
2019-02-25T19:19:59.105Z,157.62
2019-02-25T19:22:27.261Z,158.27
2019-02-25T19:24:54.202Z,156.67
2019-02-25T19:27:21.230Z,156.20
2019-02-25T19:29:49.380Z,152.87
2019-02-25T19:32:20.935Z,156.22
2019-02-25T19:34:54.035Z,153.57
2019-02-25T19:37:21.073Z,154.38
2019-02-25T19:39:50.420Z,153.97
2019-02-25T19:42:18.149Z,154.18
2019-02-25T19:44:46.673Z,155.20
2019-02-25T19:47:14.378Z,155.03
2019-02-25T19:49:43.560Z,154.55
2019-02-25T19:52:12.157Z,154.40
2019-02-25T19:54:40.858Z,154.40
2019-02-25T19:57:11.522Z,154.95
2019-02-25T19:59:38.578Z,154.25
2019-02-25T20:02:07.910Z,154.32
2019-02-25T20:04:35.964Z,155.60
2019-02-25T20:07:04.235Z,155.93
2019-02-25T20:09:31.566Z,156.78
2019-02-25T20:12:01.339Z,158.70
2019-02-25T20:14:31.338Z,153.20
2019-02-25T20:16:58.191Z,154.47
2019-02-25T20:19:25.183Z,154.25
2019-02-25T20:21:54.709Z,152.15
2019-02-25T20:24:23.801Z,155.27
2019-02-25T20:26:55.086Z,152.90
2019-02-25T20:29:20.692Z,154.63
2019-02-25T20:31:49.622Z,152.93
2019-02-25T20:34:20.331Z,156.20
2019-02-25T20:36:46.477Z,153.50
2019-02-25T20:39:14.380Z,157.45
2019-02-25T20:41:43.277Z,158.42
2019-02-25T20:44:10.655Z,160.18
2019-02-25T20:46:38.661Z,158.10
2019-02-25T20:49:06.152Z,159.25
2019-02-25T20:51:33.788Z,160.63
2019-02-25T20:54:02.054Z,154.35
2019-02-25T20:56:31.023Z,156.10
2019-02-25T20:58:58.982Z,155.40
2019-02-25T21:01:27.494Z,153.20
2019-02-25T21:03:55.252Z,154.47
2019-02-25T21:06:24.261Z,155.00
2019-02-25T21:08:51.238Z,154.05
2019-02-25T21:11:18.201Z,155.93
2019-02-25T21:13:47.578Z,156.22
2019-02-25T21:16:16.183Z,155.22
2019-02-25T21:18:44.391Z,156.28
2019-02-25T21:21:14.415Z,154.68
2019-02-25T21:23:41.442Z,154.75
2019-02-25T21:26:09.318Z,153.05
2019-02-25T21:28:38.130Z,154.03
2019-02-25T21:31:10.989Z,154.32
2019-02-25T21:33:35.032Z,156.47
2019-02-25T21:36:02.366Z,157.07
2019-02-25T21:38:32.837Z,153.87
2019-02-25T21:40:59.859Z,154.80
2019-02-25T21:43:29.078Z,152.78
2019-02-25T21:45:56.647Z,152.47
2019-02-25T21:48:27.520Z,155.00
2019-02-25T21:50:54.214Z,152.97
2019-02-25T21:53:23.056Z,155.45
2019-02-25T21:55:51.101Z,155.22
2019-02-25T21:58:21.264Z,153.60
2019-02-25T22:00:47.851Z,153.53
2019-02-25T22:03:17.323Z,155.90
2019-02-25T22:05:44.047Z,154.35
2019-02-25T22:08:11.005Z,153.85
2019-02-25T22:10:39.859Z,154.68
2019-02-25T22:13:11.691Z,151.95
2019-02-25T22:15:40.794Z,150.35
2019-02-25T22:18:11.440Z,148.55
2019-02-25T22:20:39.836Z,150.68
2019-02-25T22:23:08.043Z,149.65
2019-02-25T22:25:35.227Z,152.97
2019-02-25T22:28:07.582Z,153.65
2019-02-25T22:30:34.582Z,152.72
2019-02-25T22:33:03.005Z,149.77
2019-02-25T22:35:33.247Z,148.32
2019-02-25T22:38:00.514Z,150.57
2019-02-25T22:40:30.080Z,151.15
2019-02-25T22:42:58.908Z,150.70
2019-02-25T22:45:27.892Z,157.82
2019-02-25T22:47:54.844Z,149.20
2019-02-25T22:50:21.993Z,150.38
2019-02-25T22:52:51.607Z,150.07
2019-02-25T22:55:20.187Z,155.05
2019-02-25T22:57:50.911Z,164.03
2019-02-25T23:00:27.998Z,173.07
2019-02-25T23:02:56.915Z,160.35
2019-02-25T23:05:25.520Z,155.95
2019-02-25T23:07:54.558Z,157.18
2019-02-25T23:10:24.004Z,152.57
2019-02-25T23:12:50.734Z,150.15
2019-02-25T23:15:18.298Z,149.93
2019-02-25T23:17:46.598Z,148.55
2019-02-25T23:20:13.572Z,148.05
2019-02-25T23:22:40.549Z,146.60
2019-02-25T23:25:08.081Z,149.68
2019-02-25T23:27:36.618Z,148.62
2019-02-25T23:30:08.413Z,149.87
2019-02-25T23:32:33.817Z,148.13
2019-02-25T23:35:00.803Z,150.05
2019-02-25T23:37:27.785Z,149.35
2019-02-25T23:39:54.729Z,148.50
2019-02-25T23:42:21.673Z,148.15
2019-02-25T23:44:48.675Z,147.75
2019-02-25T23:47:15.714Z,147.85
2019-02-25T23:49:43.860Z,149.42
2019-02-25T23:52:12.844Z,148.75
2019-02-25T23:54:43.370Z,151.70
2019-02-25T23:57:08.778Z,149.05
2019-02-25T23:59:36.093Z,149.80
